createdAt,value
2023-01-04T00:00:42.176Z,4.00
2023-01-04T00:05:43.894Z,3.70
2023-01-04T00:10:46.876Z,4.07
2023-01-04T00:15:48.571Z,3.90
2023-01-04T00:20:50.281Z,3.47
2023-01-04T00:25:53.280Z,4.07
2023-01-04T00:30:55.119Z,3.90
2023-01-04T00:35:56.819Z,5.13
2023-01-04T00:40:59.933Z,4.20
2023-01-04T00:46:01.945Z,4.40
2023-01-04T00:51:03.924Z,3.33
2023-01-04T00:56:07.576Z,3.50
2023-01-04T01:01:09.369Z,3.50
2023-01-04T01:06:12.251Z,3.23
2023-01-04T01:11:15.349Z,3.10
2023-01-04T01:16:23.765Z,3.10
2023-01-04T01:21:33.774Z,2.80
2023-01-04T01:26:36.780Z,3.53
2023-01-04T01:31:38.490Z,3.37
2023-01-04T01:36:40.317Z,3.30
2023-01-04T01:41:43.363Z,2.87
2023-01-04T01:46:45.574Z,3.10
2023-01-04T01:51:47.274Z,3.00
2023-01-04T01:56:50.675Z,3.27
2023-01-04T02:01:52.507Z,2.70
2023-01-04T02:06:55.581Z,2.33
2023-01-04T02:11:58.654Z,3.07
2023-01-04T02:17:05.478Z,2.53
2023-01-04T02:22:20.789Z,2.83
2023-01-04T02:27:39.899Z,2.70
2023-01-04T02:32:49.035Z,2.93
2023-01-04T02:37:52.199Z,2.80
2023-01-04T02:43:16.268Z,2.50
2023-01-04T02:48:40.572Z,2.70
2023-01-04T02:53:42.260Z,2.90
2023-01-04T02:58:53.029Z,2.87
2023-01-04T03:04:20.636Z,2.80
2023-01-04T03:09:23.279Z,3.00
2023-01-04T03:14:31.978Z,3.50
2023-01-04T03:19:52.212Z,2.70
2023-01-04T03:25:12.481Z,2.87
2023-01-04T03:30:32.841Z,2.60
2023-01-04T03:35:40.456Z,2.97
2023-01-04T03:41:01.234Z,3.10
2023-01-04T03:46:23.010Z,2.83
2023-01-04T03:51:27.770Z,3.17
2023-01-04T03:56:29.458Z,3.10
2023-01-04T04:01:31.261Z,2.63
2023-01-04T04:06:52.916Z,2.63
2023-01-04T04:11:54.790Z,2.87
2023-01-04T04:16:56.572Z,2.63
2023-01-04T04:21:59.665Z,3.57
2023-01-04T04:27:01.369Z,2.63
2023-01-04T04:32:03.246Z,2.63
2023-01-04T04:37:06.292Z,2.47
2023-01-04T04:42:08.648Z,2.60
2023-01-04T04:47:10.372Z,2.93
2023-01-04T04:52:13.366Z,3.17
2023-01-04T04:57:15.532Z,2.70
2023-01-04T05:02:17.490Z,2.97
2023-01-04T05:07:20.685Z,2.77
2023-01-04T05:12:41.042Z,3.00
2023-01-04T05:17:42.723Z,2.60
2023-01-04T05:22:45.722Z,4.47
2023-01-04T05:27:47.410Z,2.97
2023-01-04T05:32:49.116Z,2.60
2023-01-04T05:37:52.230Z,3.13
2023-01-04T05:42:53.922Z,3.37
2023-01-04T05:47:55.609Z,2.47
2023-01-04T05:52:58.674Z,2.70
2023-01-04T05:58:00.578Z,2.57
2023-01-04T06:03:02.430Z,2.57
2023-01-04T06:08:06.096Z,2.90
2023-01-04T06:13:07.854Z,2.80
2023-01-04T06:18:13.590Z,2.67
2023-01-04T06:23:17.069Z,2.97
2023-01-04T06:28:18.833Z,5.03
2023-01-04T06:33:20.629Z,3.10
2023-01-04T06:38:23.625Z,2.60
2023-01-04T06:43:25.399Z,2.93
2023-01-04T06:48:27.093Z,3.00
2023-01-04T06:53:30.133Z,3.23
2023-01-04T06:58:31.752Z,2.80
2023-01-04T07:03:33.416Z,2.80
2023-01-04T07:08:36.459Z,2.77
2023-01-04T07:13:38.269Z,2.90
2023-01-04T07:18:39.938Z,3.03
2023-01-04T07:23:44.226Z,2.70
2023-01-04T07:29:04.786Z,2.77
2023-01-04T07:34:06.769Z,2.97
2023-01-04T07:39:10.976Z,2.47
2023-01-04T07:44:12.827Z,3.17
2023-01-04T07:49:17.760Z,2.83
2023-01-04T07:54:21.277Z,3.10
2023-01-04T07:59:23.090Z,2.80
2023-01-04T08:04:29.711Z,2.80
2023-01-04T08:09:35.919Z,2.40
2023-01-04T08:14:37.580Z,3.10
2023-01-04T08:19:39.344Z,2.13
2023-01-04T08:24:42.348Z,2.60
2023-01-04T08:29:44.068Z,2.30
2023-01-04T08:34:45.864Z,2.27
2023-01-04T08:39:49.878Z,2.80
2023-01-04T08:44:57.063Z,2.27
2023-01-04T08:50:07.833Z,2.20
2023-01-04T08:55:15.959Z,1.93
2023-01-04T09:00:21.680Z,2.00
2023-01-04T09:05:23.559Z,1.70
2023-01-04T09:10:26.813Z,1.80
2023-01-04T09:15:28.551Z,1.80
2023-01-04T09:20:30.311Z,1.33
2023-01-04T09:25:33.326Z,2.00
2023-01-04T09:30:35.236Z,3.87
2023-01-04T09:35:36.937Z,2.27
2023-01-04T09:40:48.399Z,2.23
2023-01-04T09:45:52.163Z,2.23
2023-01-04T09:50:56.295Z,2.10
2023-01-04T09:56:02.216Z,2.30
2023-01-04T10:01:06.231Z,2.80
2023-01-04T10:06:10.428Z,1.97
2023-01-04T10:11:23.891Z,2.07
2023-01-04T10:17:01.594Z,1.77
2023-01-04T10:21:56.441Z,1.93
2023-01-04T10:27:02.448Z,2.50
2023-01-04T10:32:05.590Z,1.73
2023-01-04T10:37:13.575Z,1.50
2023-01-04T10:42:18.718Z,1.50
2023-01-04T10:47:22.652Z,1.77
2023-01-04T10:52:26.113Z,1.43
2023-01-04T10:57:32.051Z,1.47
2023-01-04T11:02:36.395Z,1.43
2023-01-04T11:07:39.630Z,1.60
2023-01-04T11:12:42.731Z,1.20
2023-01-04T11:17:44.432Z,1.80
2023-01-04T11:22:48.627Z,1.40
2023-01-04T11:27:53.985Z,1.40
2023-01-04T11:32:57.282Z,1.50
2023-01-04T11:38:02.292Z,1.33
2023-01-04T11:43:18.457Z,1.17
2023-01-04T11:48:20.527Z,0.93
2023-01-04T11:53:24.701Z,1.40
2023-01-04T11:58:27.993Z,1.00
2023-01-04T12:03:30.510Z,1.00
2023-01-04T12:08:33.116Z,1.03
2023-01-04T12:13:36.174Z,1.30
2023-01-04T12:18:39.187Z,1.13
2023-01-04T12:23:40.948Z,1.00
2023-01-04T12:28:44.812Z,1.37
2023-01-04T12:33:46.729Z,0.80
2023-01-04T12:39:31.441Z,1.07
2023-01-04T12:45:13.673Z,0.90
2023-01-04T12:50:16.435Z,0.90
2023-01-04T12:55:26.702Z,0.60
2023-01-04T13:00:59.043Z,0.70
2023-01-04T13:06:03.035Z,1.40
2023-01-04T13:11:04.976Z,0.73
2023-01-04T13:16:15.756Z,0.90
2023-01-04T13:21:24.042Z,0.83
2023-01-04T13:26:32.809Z,0.83
2023-01-04T13:31:40.584Z,0.70
2023-01-04T13:36:43.663Z,0.90
2023-01-04T13:41:46.806Z,1.00
2023-01-04T13:46:54.240Z,1.23
2023-01-04T13:52:44.793Z,0.73
2023-01-04T13:57:33.875Z,0.80
2023-01-04T14:02:36.247Z,0.60
2023-01-04T14:07:42.352Z,0.70
2023-01-04T14:12:44.246Z,0.60
2023-01-04T14:17:49.574Z,0.80
2023-01-04T14:22:53.691Z,0.57
2023-01-04T14:28:17.960Z,0.60
2023-01-04T14:33:20.620Z,0.70
2023-01-04T14:38:23.627Z,0.73
2023-01-04T14:43:33.998Z,0.60
2023-01-04T14:48:35.645Z,1.13
2023-01-04T14:53:38.644Z,0.77
2023-01-04T14:58:41.564Z,1.00
2023-01-04T15:03:43.278Z,0.80
2023-01-04T15:08:46.398Z,0.97
2023-01-04T15:13:48.061Z,0.70
2023-01-04T15:18:49.769Z,0.97
2023-01-04T15:23:52.745Z,1.03
2023-01-04T15:28:54.425Z,1.50
2023-01-04T15:33:56.122Z,0.97
2023-01-04T15:38:59.203Z,1.10
2023-01-04T15:44:01.120Z,1.20
2023-01-04T15:49:02.796Z,1.70
2023-01-04T15:54:06.068Z,1.70
2023-01-04T15:59:07.758Z,2.17
2023-01-04T16:04:11.425Z,1.87
2023-01-04T16:09:14.596Z,1.90
2023-01-04T16:14:16.405Z,2.70
2023-01-04T16:19:18.345Z,2.50
2023-01-04T16:25:00.366Z,2.80
2023-01-04T16:29:43.026Z,2.50
2023-01-04T16:34:44.715Z,4.37
2023-01-04T16:40:05.717Z,2.67
2023-01-04T16:45:09.206Z,2.80
2023-01-04T16:50:12.038Z,2.57
2023-01-04T16:55:18.601Z,3.00
2023-01-04T17:00:25.371Z,2.80
2023-01-04T17:05:27.076Z,2.47
2023-01-04T17:10:30.070Z,2.53
2023-01-04T17:15:42.799Z,2.87
2023-01-04T17:20:51.651Z,2.50
2023-01-04T17:25:55.150Z,2.50
2023-01-04T17:30:57.119Z,2.77
2023-01-04T17:36:02.352Z,2.90
2023-01-04T17:41:09.046Z,2.63
2023-01-04T17:46:15.159Z,3.73
2023-01-04T17:51:20.533Z,2.87
2023-01-04T17:56:23.666Z,3.07
2023-01-04T18:01:25.665Z,2.57
2023-01-04T18:06:28.194Z,2.37
2023-01-04T18:11:31.194Z,2.60
2023-01-04T18:16:32.966Z,2.73
2023-01-04T18:21:34.656Z,2.80
2023-01-04T18:27:10.896Z,2.40
2023-01-04T18:32:01.027Z,2.43
2023-01-04T18:37:02.745Z,2.37
2023-01-04T18:42:05.831Z,2.30
2023-01-04T18:47:07.520Z,2.50
2023-01-04T18:52:09.263Z,2.13
2023-01-04T18:57:12.316Z,2.77
2023-01-04T19:02:15.497Z,3.27
2023-01-04T19:07:17.315Z,2.70
2023-01-04T19:12:20.410Z,3.53
2023-01-04T19:17:24.440Z,2.50
2023-01-04T19:22:26.318Z,2.80
2023-01-04T19:27:29.507Z,2.90
2023-01-04T19:32:33.617Z,2.33
2023-01-04T19:37:35.897Z,2.67
2023-01-04T19:42:40.766Z,3.80
2023-01-04T19:47:42.509Z,5.80
2023-01-04T19:52:44.579Z,2.07
2023-01-04T19:57:47.585Z,2.67
2023-01-04T20:02:49.482Z,4.50
2023-01-04T20:07:51.224Z,2.90
2023-01-04T20:12:54.332Z,2.57
2023-01-04T20:17:56.022Z,2.83
2023-01-04T20:22:57.725Z,3.13
2023-01-04T20:28:00.817Z,3.27
2023-01-04T20:33:02.522Z,4.27
2023-01-04T20:38:04.330Z,3.90
2023-01-04T20:43:47.370Z,3.47
2023-01-04T20:48:49.344Z,3.00
2023-01-04T20:53:51.197Z,3.50
2023-01-04T20:58:54.356Z,3.20
2023-01-04T21:03:56.273Z,2.70
2023-01-04T21:08:58.010Z,2.77
2023-01-04T21:14:02.558Z,2.40
2023-01-04T21:19:04.569Z,2.40
2023-01-04T21:24:06.860Z,2.40
2023-01-04T21:29:09.862Z,2.63
2023-01-04T21:34:15.095Z,2.80
2023-01-04T21:39:18.873Z,2.70
2023-01-04T21:44:21.901Z,2.40
2023-01-04T21:49:23.611Z,3.20
2023-01-04T21:54:25.368Z,2.67
2023-01-04T21:59:28.401Z,2.00
2023-01-04T22:04:30.162Z,2.10
2023-01-04T22:09:32.005Z,2.10
2023-01-04T22:14:35.222Z,2.30
2023-01-04T22:19:37.044Z,2.60
2023-01-04T22:24:38.800Z,3.00
2023-01-04T22:29:42.490Z,2.83
2023-01-04T22:34:44.469Z,2.60
2023-01-04T22:39:46.313Z,3.03
2023-01-04T22:44:49.403Z,2.83
2023-01-04T22:49:51.125Z,2.63
2023-01-04T22:54:52.814Z,2.53
2023-01-04T22:59:55.855Z,2.33
2023-01-04T23:04:57.555Z,2.20
2023-01-04T23:09:59.304Z,1.70
2023-01-04T23:15:03.704Z,2.60
2023-01-04T23:20:10.252Z,1.87
2023-01-04T23:25:12.252Z,2.60
2023-01-04T23:30:16.194Z,2.00
2023-01-04T23:35:18.079Z,1.97
2023-01-04T23:40:19.800Z,2.63
2023-01-04T23:45:22.912Z,2.17
2023-01-04T23:50:24.660Z,2.03
2023-01-04T23:55:26.371Z,2.10
